• Join FlightAware (Why Join?)
  • Login
  • US Flag 
10:19AM EDT


 

Airport Tracker/Info


-or-


 

Live Flight TrackerFlight Track Log ✈ RPA3253 ✈ 22-Jun-2013 ✈ KCLT - KMSY

Flight Track Log - Related Links

Times and Time Zones

All times are in EDT time to prevent confusion due to time zone crossing. See the RPA3253 flight status page for this flight to view local times or setup timezone preferences in your user account.

Time Position Orientation Groundspeed Altitude Reporting Facility
EDT Latitude Longitude Course Direction KTS MPH feet Rate Location/Type
10:44PM 35.1892 -80.9536 251° West 162 186 1,600  Level Atlanta Center
10:45PM 35.1411 -80.9528 179° South 200 230 2,600 1,620 Climbing Atlanta Center
10:46PM 35.1114 -81.0122 239° Southwest 274 315 4,600 2,400 Climbing Atlanta Center
10:46PM 35.1067 -81.0733 265° West 282 325 6,100 2,820 Climbing Atlanta Center
10:47PM 35.1976 -81.2463 199° South  Level FlightAware Approximate
10:47PM 35.0983 -81.1600 263° West 302 348 9,000  Level Atlanta Center
10:48PM 35.0970 -81.2799 192° South  Level FlightAware Approximate
10:48PM 35.0881 -81.2644 263° West 319 367 11,000  Level Atlanta Center
10:49PM 35.0535 -81.3877 251° West  Level FlightAware Approximate
10:49PM 35.0614 -81.3769 254° West 333 383 13,100  Level Atlanta Center
10:50PM 35.0283 -81.4922 251° West 354 407 15,400 2,100 Climbing Atlanta Center
10:51PM 34.9931 -81.6072 250° West 360 414 17,400 1,860 Climbing Atlanta Center
10:52PM 34.9558 -81.7275 249° West 378 435 19,200 1,620 Climbing Atlanta Center
10:53PM 34.9181 -81.8325 246° West 378 435 20,700 1,680 Climbing Atlanta Center
10:54PM 34.8492 -81.9506 235° Southwest 387 445 22,600 1,740 Climbing Atlanta Center
10:55PM 34.7883 -82.0583 236° Southwest 392 451 24,200 1,740 Climbing Atlanta Center
10:56PM 34.7256 -82.1711 236° Southwest 403 464 26,100 1,740 Climbing Atlanta Center
10:57PM 34.6644 -82.2786 235° Southwest 403 464 27,700 1,500 Climbing Atlanta Center
10:58PM 34.6033 -82.3858 235° Southwest 403 464 29,100 1,140 Climbing Atlanta Center
10:59PM 34.5422 -82.4906 235° Southwest 403 464 30,000 420 Climbing Atlanta Center
11:00PM 34.4931 -82.5769 235° Southwest 403 464 30,000  Level Atlanta Center
11:01PM 34.4153 -82.7017 233° Southwest 395 455 30,000  Level Atlanta Center
11:02PM 34.3578 -82.8083 237° Southwest 388 447 30,000  Level Atlanta Center
11:03PM 34.2961 -82.9122 234° Southwest 380 437 30,000  Level Atlanta Center
11:04PM 34.2367 -83.0161 235° Southwest 380 437 30,000  Level Atlanta Center
11:05PM 34.1747 -83.1222 235° Southwest 380 437 30,000  Level Atlanta Center
11:06PM 34.1108 -83.2283 234° Southwest 386 444 30,000  Level Atlanta Center
11:07PM 34.0511 -83.3317 235° Southwest 386 444 30,000  Level Atlanta Center
11:08PM 33.9889 -83.4400 235° Southwest 386 444 30,000  Level Atlanta Center
11:09PM 33.9331 -83.5306 233° Southwest 386 444 30,000  Level Atlanta Center
11:10PM 33.8728 -83.6361 236° Southwest 386 444 30,000  Level Atlanta Center
11:11PM 33.8106 -83.7389 234° Southwest 391 450 30,000  Level Atlanta Center
11:12PM 33.7461 -83.8439 234° Southwest 386 444 30,000  Level Atlanta Center
11:13PM 33.6856 -83.9514 236° Southwest 391 450 30,000  Level Atlanta Center
11:14PM 33.6147 -84.0636 233° Southwest 391 450 30,000  Level Atlanta Center
11:15PM 33.5519 -84.1708 235° Southwest 391 450 30,000  Level Atlanta Center
11:16PM 33.4872 -84.2781 234° Southwest 391 450 30,000  Level Atlanta Center
11:17PM 33.4244 -84.3822 234° Southwest 391 450 30,000  Level Atlanta Center
11:18PM 33.3614 -84.4889 235° Southwest 391 450 30,000  Level Atlanta Center
11:19PM 33.3003 -84.5931 235° Southwest 391 450 30,000  Level Atlanta Center
11:20PM 33.2436 -84.6847 234° Southwest 391 450 30,000  Level Atlanta Center
11:21PM 33.1783 -84.7908 234° Southwest 391 450 30,000  Level Atlanta Center
11:22PM 33.1169 -84.8969 235° Southwest 396 456 30,000  Level Atlanta Center
11:23PM 33.0536 -85.0006 234° Southwest 396 456 30,000  Level Atlanta Center
11:24PM 32.9903 -85.1039 234° Southwest 396 456 30,000  Level Atlanta Center
11:25PM 32.9267 -85.1994 232° Southwest 385 443 30,000  Level Atlanta Center
11:26PM 32.8611 -85.3025 233° Southwest 391 450 30,000  Level Atlanta Center
11:27PM 32.7972 -85.4078 234° Southwest 396 456 30,000  Level Atlanta Center
11:28PM 32.7336 -85.5081 233° Southwest 396 456 30,000  Level Atlanta Center
11:29PM 32.6675 -85.6106 233° Southwest 396 456 30,000  Level Atlanta Center
11:30PM 32.6036 -85.7156 234° Southwest 396 456 30,000  Level Atlanta Center
11:31PM 32.5375 -85.8203 233° Southwest 396 456 30,000  Level Atlanta Center
11:32PM 32.4689 -85.9247 232° Southwest 401 461 30,000  Level Atlanta Center
11:33PM 32.4047 -86.0267 233° Southwest 406 467 30,000  Level Atlanta Center
11:34PM 32.3383 -86.1308 233° Southwest 406 467 30,000  Level Atlanta Center
11:35PM 32.2864 -86.2353 240° Southwest 398 458 30,000  Level Atlanta Center
11:36PM 32.2217 -86.3589 238° Southwest 393 452 30,000  Level Atlanta Center
11:37PM 32.1758 -86.4533 240° Southwest 393 452 30,000  Level Atlanta Center
11:38PM 32.1175 -86.5597 237° Southwest 388 447 30,000  Level Atlanta Center
11:39PM 32.0569 -86.6658 236° Southwest 388 447 30,000  Level Atlanta Center
11:40PM 31.9875 -86.7814 235° Southwest 388 447 30,000  Level Atlanta Center
11:41PM 31.9286 -86.8897 237° Southwest 393 452 30,000  Level Atlanta Center
11:43PM 31.8419 -87.0464 237° Southwest 387 445 30,000  Level Houston Center
11:44PM 31.7822 -87.1531 237° Southwest 390 449 30,000  Level Houston Center
11:45PM 31.7244 -87.2586 237° Southwest 387 445 30,000  Level Houston Center
11:46PM 31.6661 -87.3642 237° Southwest 386 444 30,000  Level Houston Center
11:47PM 31.6078 -87.4697 237° Southwest 387 445 30,000  Level Houston Center
11:48PM 31.5478 -87.5761 237° Southwest 389 448 30,000  Level Houston Center
11:49PM 31.4881 -87.6825 237° Southwest 391 450 30,000  Level Houston Center
11:50PM 31.4294 -87.7886 237° Southwest 390 449 30,000  Level Houston Center
11:51PM 31.3706 -87.8939 237° Southwest 388 447 30,000  Level Houston Center
11:52PM 31.2986 -88.0214 237° Southwest 393 452 30,000  Level Houston Center
11:53PM 31.2392 -88.1264 237° Southwest 390 449 30,000  Level Houston Center
11:54PM 31.1831 -88.2253 236° Southwest 394 453 30,000  Level Houston Center
11:55PM 31.1186 -88.3300 234° Southwest 398 458 30,000  Level Houston Center
11:56PM 31.0589 -88.4389 237° Southwest 398 458 30,000  Level Houston Center
11:57PM 30.9972 -88.5444 236° Southwest 394 453 30,000  Level Houston Center
11:58PM 30.9356 -88.6514 236° Southwest 394 453 30,000  Level Houston Center
11:59PM 30.8725 -88.7583 236° Southwest 401 461 30,000  Level Houston Center
12:00AM 30.8119 -88.8625 236° Southwest 394 453 30,000 -780 Level Houston Center
12:01AM 30.7522 -88.9683 237° Southwest 393 452 28,500 -1,740 Descending Houston Center
12:02AM 30.6925 -89.0722 236° Southwest 389 448 26,500 -1,920 Descending Houston Center
12:03AM 30.6322 -89.1756 236° Southwest 388 447 24,700 -1,860 Descending Houston Center
12:04AM 30.5975 -89.2383 237° Southwest 383 441 23,500 -1,920 Descending Houston Center
12:05AM 30.5150 -89.3803 236° Southwest 365 420 21,100 -1,860 Descending Houston Center
12:06AM 30.4581 -89.4769 236° Southwest 367 422 19,300 -1,800 Descending Houston Center
12:07AM 30.4114 -89.5758 241° Southwest 345 397 17,500 -1,860 Descending Houston Center
12:08AM 30.3644 -89.6694 240° Southwest 335 386 15,600 -1,860 Descending Houston Center
12:09AM 30.3203 -89.7594 240° Southwest 334 384 13,700 -1,860 Descending Houston Center
12:10AM 30.2767 -89.8531 242° Southwest 321 369 11,800 -1,860 Descending Houston Center
12:11AM 30.2356 -89.9383 241° Southwest 307 353 10,000 -2,040 Descending Houston Center
12:12AM 30.1956 -90.0203 241° Southwest 296 341 7,700 -1,740 Descending Houston Center
12:13AM 30.1581 -90.0978 241° Southwest 281 323 6,600 -1,680 Descending Houston Center
12:14AM 30.1269 -90.1617 241° Southwest 238 274 4,400 -2,220 Descending Houston Center
12:15AM 30.0978 -90.2192 240° Southwest 222 255 2,200 -1,740 Descending Houston Center
12:16AM 30.0506 -90.2319 193° South 188 216 1,000 -960 Descending Houston Center
12:17AM 30.0094 -90.2444 195° South 162 186 300 -720 Descending Houston Center
12:19AM 29.9833 -90.2500 235° Southwest  Level FlightAware Approximate
12:26AM 29.9934 -90.2580 235° Southwest  Level Estimated
12:27AM 29.9934 -90.2580 235° Southwest  Level Estimated